< < Back
Terminal Aerodrome Forecast


Current Version              Previous Versions:   1  2  3  4  5  6  7  8  9  

Terminal Aerodrome Forecast

443
FTUS42 KJAX 051039 AAC
TAFJAX
TAF AMD
KJAX 051039Z 0511/0606 00000KT 6SM BR FEW001 SCT250
     FM051400 24006KT P6SM SCT035
     FM051800 23007KT P6SM VCTS BKN040CB PROB30 0520/0523 5SM -TSRA
      BKN040CB
     FM060100 23004KT P6SM SCT100 BKN200=

Latest METAR

857
SAUS80 KWBC 051200
MTRJAX
METAR KJAX 051156Z 22004KT 6SM BR FEW010 FEW020 FEW250 25/24 A3008 RMK
AO2 SLP188 TCU DSNT SW 70075 T02500244 10250 20228 53009


USA.gov is the U.S. government's official web portal to all federal, state and local government web resources and services.